sensor_id;sensor_type;location;lat;lon;timestamp;pressure;altitude;pressure_sealevel;temperature;humidity
39823;BME280;25499;53.958;10.970;2023-02-28T07:00:09;103063.69;;;-0.97;99.87
39823;BME280;25499;53.958;10.970;2023-02-28T07:02:38;103060.22;;;-0.87;99.09
39823;BME280;25499;53.958;10.970;2023-02-28T07:05:05;103061.50;;;-0.82;98.49
39823;BME280;25499;53.958;10.970;2023-02-28T07:07:30;103063.13;;;-0.72;98.31
39823;BME280;25499;53.958;10.970;2023-02-28T07:09:56;103066.16;;;-0.66;98.09
39823;BME280;25499;53.958;10.970;2023-02-28T07:12:21;103065.25;;;-0.57;97.72
39823;BME280;25499;53.958;10.970;2023-02-28T07:14:47;103069.94;;;-0.41;97.90
39823;BME280;25499;53.958;10.970;2023-02-28T07:17:12;103063.34;;;-0.59;97.95
39823;BME280;25499;53.958;10.970;2023-02-28T07:19:38;103088.28;;;-0.02;97.91
39823;BME280;25499;53.958;10.970;2023-02-28T07:22:04;103082.47;;;0.11;96.80
39823;BME280;25499;53.958;10.970;2023-02-28T07:24:30;103076.84;;;0.05;96.47
39823;BME280;25499;53.958;10.970;2023-02-28T07:26:55;103070.66;;;0.13;95.68
39823;BME280;25499;53.958;10.970;2023-02-28T07:29:21;103078.81;;;0.19;95.37
39823;BME280;25499;53.958;10.970;2023-02-28T07:31:48;103073.75;;;0.31;94.55
39823;BME280;25499;53.958;10.970;2023-02-28T07:34:15;103079.84;;;0.55;93.95
39823;BME280;25499;53.958;10.970;2023-02-28T07:36:41;103083.06;;;0.64;93.74
39823;BME280;25499;53.958;10.970;2023-02-28T07:39:06;103085.34;;;0.71;93.52
39823;BME280;25499;53.958;10.970;2023-02-28T07:41:31;103074.44;;;0.98;93.02
39823;BME280;25499;53.958;10.970;2023-02-28T07:43:59;103069.66;;;1.02;92.29
39823;BME280;25499;53.958;10.970;2023-02-28T07:46:26;103070.91;;;1.07;91.74
39823;BME280;25499;53.958;10.970;2023-02-28T07:48:52;103069.09;;;1.06;91.13
39823;BME280;25499;53.958;10.970;2023-02-28T07:51:18;103064.53;;;1.14;91.00
39823;BME280;25499;53.958;10.970;2023-02-28T07:53:44;103062.28;;;1.19;90.36
39823;BME280;25499;53.958;10.970;2023-02-28T07:56:09;103068.22;;;1.29;90.61
39823;BME280;25499;53.958;10.970;2023-02-28T07:58:36;103081.91;;;1.65;90.46
39823;BME280;25499;53.958;10.970;2023-02-28T08:01:10;103085.94;;;1.62;91.15
39823;BME280;25499;53.958;10.970;2023-02-28T08:03:36;103069.69;;;1.26;90.71
39823;BME280;25499;53.958;10.970;2023-02-28T08:06:13;103083.69;;;1.78;90.76
39823;BME280;25499;53.958;10.970;2023-02-28T08:08:40;103083.34;;;2.11;90.00
39823;BME280;25499;53.958;10.970;2023-02-28T08:11:05;103059.31;;;2.10;88.35
39823;BME280;25499;53.958;10.970;2023-02-28T08:13:31;103048.16;;;2.10;87.69
39823;BME280;25499;53.958;10.970;2023-02-28T08:15:56;103055.94;;;2.23;87.73
39823;BME280;25499;53.958;10.970;2023-02-28T08:18:23;103069.34;;;2.44;87.70
39823;BME280;25499;53.958;10.970;2023-02-28T08:20:49;103062.22;;;2.40;87.63
39823;BME280;25499;53.958;10.970;2023-02-28T08:23:14;103059.47;;;2.50;87.54
39823;BME280;25499;53.958;10.970;2023-02-28T08:25:40;103047.22;;;2.59;86.45
39823;BME280;25499;53.958;10.970;2023-02-28T08:28:05;103046.59;;;2.75;85.71
39823;BME280;25499;53.958;10.970;2023-02-28T08:30:31;103028.69;;;2.77;85.13
39823;BME280;25499;53.958;10.970;2023-02-28T08:32:56;103041.16;;;2.84;85.34
39823;BME280;25499;53.958;10.970;2023-02-28T08:35:22;103039.28;;;3.08;84.88
39823;BME280;25499;53.958;10.970;2023-02-28T08:37:49;103042.81;;;3.24;84.63
39823;BME280;25499;53.958;10.970;2023-02-28T08:40:15;103030.66;;;3.34;83.77
39823;BME280;25499;53.958;10.970;2023-02-28T08:42:44;103028.97;;;3.35;83.70
39823;BME280;25499;53.958;10.970;2023-02-28T08:45:12;103018.34;;;3.57;82.10
39823;BME280;25499;53.958;10.970;2023-02-28T08:47:37;102993.44;;;3.71;80.43
39823;BME280;25499;53.958;10.970;2023-02-28T08:50:04;102968.66;;;3.73;78.42
39823;BME280;25499;53.958;10.970;2023-02-28T08:52:30;102947.09;;;3.86;77.15
39823;BME280;25499;53.958;10.970;2023-02-28T08:54:56;102934.56;;;3.92;75.86
39823;BME280;25499;53.958;10.970;2023-02-28T08:57:22;102915.66;;;3.91;74.95
39823;BME280;25499;53.958;10.970;2023-02-28T08:59:48;102945.47;;;4.16;74.97
39823;BME280;25499;53.958;10.970;2023-02-28T09:02:14;102954.59;;;4.26;75.19
39823;BME280;25499;53.958;10.970;2023-02-28T09:04:40;102950.34;;;4.41;74.72
39823;BME280;25499;53.958;10.970;2023-02-28T09:07:06;102960.91;;;4.46;74.78
39823;BME280;25499;53.958;10.970;2023-02-28T09:09:32;102957.28;;;4.42;74.45
39823;BME280;25499;53.958;10.970;2023-02-28T09:11:58;102939.84;;;4.53;73.65
39823;BME280;25499;53.958;10.970;2023-02-28T09:14:24;102956.81;;;4.79;73.83
39823;BME280;25499;53.958;10.970;2023-02-28T09:16:50;102957.94;;;4.84;73.58
39823;BME280;25499;53.958;10.970;2023-02-28T09:19:15;102970.59;;;5.42;73.31
39823;BME280;25499;53.958;10.970;2023-02-28T09:21:41;102944.38;;;5.35;72.66
39823;BME280;25499;53.958;10.970;2023-02-28T09:24:07;102950.34;;;5.50;72.35
39823;BME280;25499;53.958;10.970;2023-02-28T09:26:32;102966.19;;;5.89;72.45
39823;BME280;25499;53.958;10.970;2023-02-28T09:28:59;102924.06;;;5.92;70.42
39823;BME280;25499;53.958;10.970;2023-02-28T09:31:27;102906.66;;;6.04;69.58
39823;BME280;25499;53.958;10.970;2023-02-28T09:33:55;102890.34;;;6.41;68.23
39823;BME280;25499;53.958;10.970;2023-02-28T09:36:22;102871.13;;;6.18;67.47
39823;BME280;25499;53.958;10.970;2023-02-28T09:38:48;102883.78;;;6.30;67.55
39823;BME280;25499;53.958;10.970;2023-02-28T09:41:21;102892.13;;;6.42;67.59
39823;BME280;25499;53.958;10.970;2023-02-28T09:43:50;102916.16;;;6.58;68.12
39823;BME280;25499;53.958;10.970;2023-02-28T09:48:51;102900.94;;;6.64;67.09
39823;BME280;25499;53.958;10.970;2023-02-28T09:51:37;102942.56;;;7.24;67.71
39823;BME280;25499;53.958;10.970;2023-02-28T09:54:05;102897.19;;;7.32;66.58
39823;BME280;25499;53.958;10.970;2023-02-28T09:56:40;102864.94;;;7.25;64.67
39823;BME280;25499;53.958;10.970;2023-02-28T10:04:33;102849.69;;;8.14;63.46
39823;BME280;25499;53.958;10.970;2023-02-28T10:09:58;102795.53;;;8.01;60.86
39823;BME280;25499;53.958;10.970;2023-02-28T10:12:27;102801.00;;;8.51;59.72
39823;BME280;25499;53.958;10.970;2023-02-28T10:14:54;102782.28;;;8.59;59.03
39823;BME280;25499;53.958;10.970;2023-02-28T10:17:23;102806.88;;;9.40;58.42
39823;BME280;25499;53.958;10.970;2023-02-28T10:19:58;102802.59;;;11.39;55.50
39823;BME280;25499;53.958;10.970;2023-02-28T10:25:12;102770.50;;;14.52;49.34
39823;BME280;25499;53.958;10.970;2023-02-28T10:27:41;102644.75;;;15.54;43.77
39823;BME280;25499;53.958;10.970;2023-02-28T10:30:10;102589.31;;;15.12;40.50
39823;BME280;25499;53.958;10.970;2023-02-28T10:32:37;102684.34;;;15.83;41.51
39823;BME280;25499;53.958;10.970;2023-02-28T10:37:40;102705.13;;;13.39;44.72
39823;BME280;25499;53.958;10.970;2023-02-28T10:45:25;102704.22;;;12.06;47.51
39823;BME280;25499;53.958;10.970;2023-02-28T10:48:01;102774.72;;;12.06;48.81
39823;BME280;25499;53.958;10.970;2023-02-28T10:56:14;102812.97;;;10.47;52.96
39823;BME280;25499;53.958;10.970;2023-02-28T11:01:45;102789.66;;;10.80;52.20
39823;BME280;25499;53.958;10.970;2023-02-28T11:09:38;102821.13;;;11.50;51.41
39823;BME280;25499;53.958;10.970;2023-02-28T11:12:06;102753.97;;;10.77;51.25
39823;BME280;25499;53.958;10.970;2023-02-28T11:14:42;102775.88;;;11.48;50.50
39823;BME280;25499;53.958;10.970;2023-02-28T11:17:25;102714.03;;;9.90;51.11
39823;BME280;25499;53.958;10.970;2023-02-28T11:19:53;102829.03;;;11.21;52.47
39823;BME280;25499;53.958;10.970;2023-02-28T11:22:22;102785.22;;;11.73;51.39
39823;BME280;25499;53.958;10.970;2023-02-28T11:24:53;102751.66;;;11.18;50.82
39823;BME280;25499;53.958;10.970;2023-02-28T11:29:59;102833.97;;;12.85;51.28
39823;BME280;25499;53.958;10.970;2023-02-28T11:32:27;102759.53;;;12.69;49.76
39823;BME280;25499;53.958;10.970;2023-02-28T11:35:15;102733.59;;;12.77;48.20
39823;BME280;25499;53.958;10.970;2023-02-28T11:37:42;102673.47;;;12.77;47.60
39823;BME280;25499;53.958;10.970;2023-02-28T11:40:15;102779.97;;;12.87;49.38
39823;BME280;25499;53.958;10.970;2023-02-28T11:45:43;102745.84;;;13.77;47.73
39823;BME280;25499;53.958;10.970;2023-02-28T11:48:41;102701.78;;;13.50;47.07
39823;BME280;25499;53.958;10.970;2023-02-28T11:54:08;102789.97;;;14.67;47.89
39823;BME280;25499;53.958;10.970;2023-02-28T11:56:44;102755.72;;;15.36;47.24
39823;BME280;25499;53.958;10.970;2023-02-28T11:59:57;102668.28;;;14.54;45.04
39823;BME280;25499;53.958;10.970;2023-02-28T12:02:28;102628.44;;;14.83;44.43
39823;BME280;25499;53.958;10.970;2023-02-28T12:07:45;102680.84;;;15.81;44.39
39823;BME280;25499;53.958;10.970;2023-02-28T12:16:14;102573.38;;;14.86;42.29
39823;BME280;25499;53.958;10.970;2023-02-28T12:22:46;102601.97;;;15.75;42.31
39823;BME280;25499;53.958;10.970;2023-02-28T12:27:44;102605.31;;;15.47;42.19
39823;BME280;25499;53.958;10.970;2023-02-28T12:30:35;102650.50;;;16.63;42.40
39823;BME280;25499;53.958;10.970;2023-02-28T12:33:08;102595.34;;;17.03;40.00
39823;BME280;25499;53.958;10.970;2023-02-28T12:35:38;102599.50;;;18.12;39.02
39823;BME280;25499;53.958;10.970;2023-02-28T12:39:10;102556.59;;;17.70;38.32
39823;BME280;25499;53.958;10.970;2023-02-28T12:42:38;102494.47;;;16.92;37.51
39823;BME280;25499;53.958;10.970;2023-02-28T12:44:56;102602.97;;;18.22;38.12
39823;BME280;25499;53.958;10.970;2023-02-28T12:47:23;102598.56;;;18.19;38.53
39823;BME280;25499;53.958;10.970;2023-02-28T12:52:50;102557.03;;;18.57;37.01
39823;BME280;25499;53.958;10.970;2023-02-28T12:55:49;102534.78;;;18.90;35.67
39823;BME280;25499;53.958;10.970;2023-02-28T12:58:39;102572.19;;;19.37;36.33
39823;BME280;25499;53.958;10.970;2023-02-28T13:09:19;102510.03;;;19.83;33.93
39823;BME280;25499;53.958;10.970;2023-02-28T13:11:50;102559.78;;;19.44;34.23
39823;BME280;25499;53.958;10.970;2023-02-28T13:14:29;102507.50;;;18.94;34.19
39823;BME280;25499;53.958;10.970;2023-02-28T13:19:35;102504.72;;;17.86;34.80
39823;BME280;25499;53.958;10.970;2023-02-28T13:22:02;102523.25;;;17.70;36.16
39823;BME280;25499;53.958;10.970;2023-02-28T13:47:30;102518.19;;;11.33;43.57
39823;BME280;25499;53.958;10.970;2023-02-28T13:50:22;102509.00;;;10.74;44.03
39823;BME280;25499;53.958;10.970;2023-02-28T13:53:16;102520.47;;;10.16;44.99
39823;BME280;25499;53.958;10.970;2023-02-28T13:55:52;102524.06;;;9.59;45.57
39823;BME280;25499;53.958;10.970;2023-02-28T14:07:22;102519.00;;;8.53;47.04
39823;BME280;25499;53.958;10.970;2023-02-28T14:10:08;102466.28;;;9.10;44.28
39823;BME280;25499;53.958;10.970;2023-02-28T14:18:05;102499.66;;;8.45;44.63
39823;BME280;25499;53.958;10.970;2023-02-28T14:20:36;102489.66;;;8.31;45.04
39823;BME280;25499;53.958;10.970;2023-02-28T14:37:01;102474.09;;;9.39;42.67
39823;BME280;25499;53.958;10.970;2023-02-28T14:39:28;102465.72;;;9.49;42.76
39823;BME280;25499;53.958;10.970;2023-02-28T14:41:56;102473.34;;;9.43;43.15
39823;BME280;25499;53.958;10.970;2023-02-28T14:44:28;102452.00;;;9.24;42.72
39823;BME280;25499;53.958;10.970;2023-02-28T14:46:56;102411.72;;;8.81;42.43
39823;BME280;25499;53.958;10.970;2023-02-28T14:49:35;102406.69;;;8.87;42.40
39823;BME280;25499;53.958;10.970;2023-02-28T14:54:52;102465.19;;;8.74;43.96
39823;BME280;25499;53.958;10.970;2023-02-28T14:57:30;102410.41;;;8.67;42.87
39823;BME280;25499;53.958;10.970;2023-02-28T15:02:34;102439.66;;;8.88;43.06
39823;BME280;25499;53.958;10.970;2023-02-28T15:07:47;102394.66;;;8.62;42.55
39823;BME280;25499;53.958;10.970;2023-02-28T15:13:16;102418.53;;;8.77;43.66
39823;BME280;25499;53.958;10.970;2023-02-28T15:15:54;102408.56;;;8.63;43.17
39823;BME280;25499;53.958;10.970;2023-02-28T15:21:07;102454.34;;;8.61;44.81
39823;BME280;25499;53.958;10.970;2023-02-28T15:23:37;102437.47;;;8.22;44.91
39823;BME280;25499;53.958;10.970;2023-02-28T15:26:05;102464.81;;;8.12;46.07
39823;BME280;25499;53.958;10.970;2023-02-28T15:28:30;102448.09;;;7.80;46.28
39823;BME280;25499;53.958;10.970;2023-02-28T15:31:27;102453.97;;;7.52;47.06
39823;BME280;25499;53.958;10.970;2023-02-28T15:33:58;102472.72;;;7.44;47.69
39823;BME280;25499;53.958;10.970;2023-02-28T15:36:30;102482.84;;;7.61;47.54
39823;BME280;25499;53.958;10.970;2023-02-28T15:38:58;102507.19;;;7.89;47.62
39823;BME280;25499;53.958;10.970;2023-02-28T15:41:36;102479.28;;;7.81;47.23
39823;BME280;25499;53.958;10.970;2023-02-28T15:44:26;102503.09;;;7.95;47.54
39823;BME280;25499;53.958;10.970;2023-02-28T15:49:21;102532.16;;;7.40;49.18
39823;BME280;25499;53.958;10.970;2023-02-28T15:51:49;102521.09;;;7.21;49.51
39823;BME280;25499;53.958;10.970;2023-02-28T15:54:28;102542.00;;;7.05;50.08
39823;BME280;25499;53.958;10.970;2023-02-28T15:56:56;102525.25;;;7.18;49.44
39823;BME280;25499;53.958;10.970;2023-02-28T15:59:25;102544.06;;;6.91;50.63
39823;BME280;25499;53.958;10.970;2023-02-28T16:02:16;102588.94;;;6.91;51.72
39823;BME280;25499;53.958;10.970;2023-02-28T16:07:34;102588.66;;;6.64;52.66
39823;BME280;25499;53.958;10.970;2023-02-28T16:09:59;102598.81;;;6.60;52.84
39823;BME280;25499;53.958;10.970;2023-02-28T16:12:30;102609.31;;;6.43;53.27
39823;BME280;25499;53.958;10.970;2023-02-28T16:15:02;102611.69;;;6.39;53.70
39823;BME280;25499;53.958;10.970;2023-02-28T16:17:34;102628.19;;;6.21;54.26
39823;BME280;25499;53.958;10.970;2023-02-28T16:20:00;102633.44;;;6.05;54.54
39823;BME280;25499;53.958;10.970;2023-02-28T16:22:25;102640.72;;;5.95;55.07
39823;BME280;25499;53.958;10.970;2023-02-28T16:24:51;102650.53;;;6.01;55.33
39823;BME280;25499;53.958;10.970;2023-02-28T16:27:27;102652.00;;;5.78;55.73
39823;BME280;25499;53.958;10.970;2023-02-28T16:29:54;102670.00;;;5.76;56.17
39823;BME280;25499;53.958;10.970;2023-02-28T16:32:20;102672.81;;;5.63;56.51
39823;BME280;25499;53.958;10.970;2023-02-28T16:34:45;102682.88;;;5.57;56.71
39823;BME280;25499;53.958;10.970;2023-02-28T16:37:16;102683.94;;;5.44;56.63
39823;BME280;25499;53.958;10.970;2023-02-28T16:39:43;102688.03;;;5.22;57.08
39823;BME280;25499;53.958;10.970;2023-02-28T16:42:16;102692.72;;;5.30;57.44
39823;BME280;25499;53.958;10.970;2023-02-28T16:44:45;102694.63;;;5.34;57.51
39823;BME280;25499;53.958;10.970;2023-02-28T16:47:11;102705.34;;;5.07;57.84
39823;BME280;25499;53.958;10.970;2023-02-28T16:49:39;102726.47;;;5.16;58.27
39823;BME280;25499;53.958;10.970;2023-02-28T16:52:07;102722.59;;;5.25;58.05
39823;BME280;25499;53.958;10.970;2023-02-28T16:54:32;102712.28;;;4.92;58.35
39823;BME280;25499;53.958;10.970;2023-02-28T16:56:59;102713.94;;;4.57;59.06
39823;BME280;25499;53.958;10.970;2023-02-28T16:59:26;102718.72;;;4.34;59.58
39823;BME280;25499;53.958;10.970;2023-02-28T17:01:53;102745.66;;;4.56;59.88
39823;BME280;25499;53.958;10.970;2023-02-28T17:04:19;102768.84;;;4.71;60.40
39823;BME280;25499;53.958;10.970;2023-02-28T17:06:45;102795.72;;;4.91;61.26
39823;BME280;25499;53.958;10.970;2023-02-28T17:09:19;102793.66;;;4.69;61.76
39823;BME280;25499;53.958;10.970;2023-02-28T17:11:46;102796.28;;;4.54;62.32
39823;BME280;25499;53.958;10.970;2023-02-28T17:14:12;102807.78;;;4.44;62.48
39823;BME280;25499;53.958;10.970;2023-02-28T17:16:39;102791.16;;;4.07;62.50
39823;BME280;25499;53.958;10.970;2023-02-28T17:19:06;102793.47;;;4.18;62.49
39823;BME280;25499;53.958;10.970;2023-02-28T17:21:33;102792.22;;;3.96;62.90
39823;BME280;25499;53.958;10.970;2023-02-28T17:23:59;102820.13;;;4.18;63.28
39823;BME280;25499;53.958;10.970;2023-02-28T17:26:26;102802.44;;;3.95;63.27
39823;BME280;25499;53.958;10.970;2023-02-28T17:28:53;102810.72;;;3.89;63.71
39823;BME280;25499;53.958;10.970;2023-02-28T17:31:21;102822.09;;;3.92;63.82
39823;BME280;25499;53.958;10.970;2023-02-28T17:33:47;102821.13;;;3.76;64.38
39823;BME280;25499;53.958;10.970;2023-02-28T17:36:15;102797.91;;;3.46;64.24
39823;BME280;25499;53.958;10.970;2023-02-28T17:38:40;102807.66;;;3.36;64.71
39823;BME280;25499;53.958;10.970;2023-02-28T17:41:09;102821.66;;;3.27;65.01
39823;BME280;25499;53.958;10.970;2023-02-28T17:43:35;102828.09;;;2.92;65.69
39823;BME280;25499;53.958;10.970;2023-02-28T17:46:00;102833.63;;;2.56;66.48
39823;BME280;25499;53.958;10.970;2023-02-28T17:48:26;102852.22;;;2.52;67.08
39823;BME280;25499;53.958;10.970;2023-02-28T17:50:51;102863.88;;;2.47;67.96
39823;BME280;25499;53.958;10.970;2023-02-28T17:53:17;102861.94;;;2.43;68.34
39823;BME280;25499;53.958;10.970;2023-02-28T17:55:43;102881.41;;;2.39;69.34
39823;BME280;25499;53.958;10.970;2023-02-28T17:58:10;102870.00;;;2.36;69.16
39823;BME280;25499;53.958;10.970;2023-02-28T18:00:36;102866.25;;;2.31;69.52
39823;BME280;25499;53.958;10.970;2023-02-28T18:03:03;102863.50;;;2.14;69.61
39823;BME280;25499;53.958;10.970;2023-02-28T18:05:28;102880.56;;;2.27;69.88
39823;BME280;25499;53.958;10.970;2023-02-28T18:07:55;102891.19;;;2.45;69.83
39823;BME280;25499;53.958;10.970;2023-02-28T18:10:21;102866.53;;;2.22;69.44
39823;BME280;25499;53.958;10.970;2023-02-28T18:12:50;102868.63;;;2.14;69.55
39823;BME280;25499;53.958;10.970;2023-02-28T18:15:17;102865.72;;;1.96;69.78
39823;BME280;25499;53.958;10.970;2023-02-28T18:17:45;102864.53;;;1.91;69.96
39823;BME280;25499;53.958;10.970;2023-02-28T18:20:11;102872.47;;;1.69;70.57
39823;BME280;25499;53.958;10.970;2023-02-28T18:22:38;102875.81;;;1.68;70.85
39823;BME280;25499;53.958;10.970;2023-02-28T18:25:05;102887.38;;;1.61;71.59
39823;BME280;25499;53.958;10.970;2023-02-28T18:27:31;102898.69;;;1.52;71.85
39823;BME280;25499;53.958;10.970;2023-02-28T18:29:56;102889.44;;;1.42;71.91
39823;BME280;25499;53.958;10.970;2023-02-28T18:32:21;102889.53;;;1.18;72.28
39823;BME280;25499;53.958;10.970;2023-02-28T18:34:47;102896.84;;;1.00;73.25
39823;BME280;25499;53.958;10.970;2023-02-28T18:37:13;102923.69;;;1.17;74.35
39823;BME280;25499;53.958;10.970;2023-02-28T18:39:40;102938.38;;;1.20;75.28
39823;BME280;25499;53.958;10.970;2023-02-28T18:42:05;102931.03;;;1.13;75.62
39823;BME280;25499;53.958;10.970;2023-02-28T18:44:31;102917.38;;;0.88;76.01
39823;BME280;25499;53.958;10.970;2023-02-28T18:46:56;102929.28;;;0.88;76.67
39823;BME280;25499;53.958;10.970;2023-02-28T18:49:22;102933.19;;;0.95;77.45
39823;BME280;25499;53.958;10.970;2023-02-28T18:51:47;102939.22;;;0.83;77.35
39823;BME280;25499;53.958;10.970;2023-02-28T18:54:13;102933.88;;;0.92;77.48
39823;BME280;25499;53.958;10.970;2023-02-28T18:56:39;102926.50;;;0.85;77.16
39823;BME280;25499;53.958;10.970;2023-02-28T18:59:04;102929.50;;;0.79;77.08
39823;BME280;25499;53.958;10.970;2023-02-28T19:01:32;102928.63;;;0.79;77.06
39823;BME280;25499;53.958;10.970;2023-02-28T19:03:59;102928.41;;;0.52;77.65
39823;BME280;25499;53.958;10.970;2023-02-28T19:06:26;102933.88;;;0.45;77.78
39823;BME280;25499;53.958;10.970;2023-02-28T19:08:55;102936.84;;;0.51;78.02
39823;BME280;25499;53.958;10.970;2023-02-28T19:11:21;102934.41;;;0.41;77.97
39823;BME280;25499;53.958;10.970;2023-02-28T19:13:48;102949.03;;;0.65;78.71
39823;BME280;25499;53.958;10.970;2023-02-28T19:16:15;102964.53;;;0.90;79.05
39823;BME280;25499;53.958;10.970;2023-02-28T19:18:42;102948.16;;;0.88;78.48
39823;BME280;25499;53.958;10.970;2023-02-28T19:21:09;102943.66;;;0.86;78.73
39823;BME280;25499;53.958;10.970;2023-02-28T19:23:36;102947.91;;;0.62;79.33
39823;BME280;25499;53.958;10.970;2023-02-28T19:26:06;102953.47;;;0.68;79.63
39823;BME280;25499;53.958;10.970;2023-02-28T19:28:32;102956.13;;;1.05;79.90
39823;BME280;25499;53.958;10.970;2023-02-28T19:30:57;102939.00;;;0.68;79.51
39823;BME280;25499;53.958;10.970;2023-02-28T19:33:23;102935.97;;;0.50;79.25
39823;BME280;25499;53.958;10.970;2023-02-28T19:35:49;102930.31;;;0.43;78.73
39823;BME280;25499;53.958;10.970;2023-02-28T19:38:14;102937.41;;;0.35;78.78
39823;BME280;25499;53.958;10.970;2023-02-28T19:40:40;102933.84;;;0.21;79.24
39823;BME280;25499;53.958;10.970;2023-02-28T19:43:06;102948.78;;;0.39;79.90
39823;BME280;25499;53.958;10.970;2023-02-28T19:45:34;102963.28;;;0.62;80.46
39823;BME280;25499;53.958;10.970;2023-02-28T19:47:59;102972.44;;;0.93;80.93
39823;BME280;25499;53.958;10.970;2023-02-28T19:50:26;102979.44;;;1.20;80.90
39823;BME280;25499;53.958;10.970;2023-02-28T19:52:51;102980.06;;;1.29;81.08
39823;BME280;25499;53.958;10.970;2023-02-28T19:55:17;102957.94;;;0.94;80.57
39823;BME280;25499;53.958;10.970;2023-02-28T19:57:43;102948.34;;;0.91;80.50
39823;BME280;25499;53.958;10.970;2023-02-28T20:00:11;102952.78;;;1.18;80.53
39823;BME280;25499;53.958;10.970;2023-02-28T20:02:40;102957.28;;;1.45;80.46
39823;BME280;25499;53.958;10.970;2023-02-28T20:05:07;102949.53;;;1.57;80.12
39823;BME280;25499;53.958;10.970;2023-02-28T20:07:33;102939.72;;;1.63;79.96
39823;BME280;25499;53.958;10.970;2023-02-28T20:09:58;102921.00;;;1.16;79.35
39823;BME280;25499;53.958;10.970;2023-02-28T20:12:24;102938.28;;;1.55;79.20
39823;BME280;25499;53.958;10.970;2023-02-28T20:14:51;102934.81;;;1.18;79.56
39823;BME280;25499;53.958;10.970;2023-02-28T20:17:17;102934.97;;;0.96;80.56
39823;BME280;25499;53.958;10.970;2023-02-28T20:19:43;102920.06;;;0.54;79.97
39823;BME280;25499;53.958;10.970;2023-02-28T20:22:08;102908.22;;;0.21;79.92
39823;BME280;25499;53.958;10.970;2023-02-28T20:24:35;102904.63;;;-0.05;80.29
39823;BME280;25499;53.958;10.970;2023-02-28T20:27:01;102909.09;;;-0.24;80.69
39823;BME280;25499;53.958;10.970;2023-02-28T20:29:29;102926.84;;;-0.04;81.08
39823;BME280;25499;53.958;10.970;2023-02-28T20:31:54;102933.94;;;0.11;81.12
39823;BME280;25499;53.958;10.970;2023-02-28T20:34:20;102932.50;;;0.26;81.24
39823;BME280;25499;53.958;10.970;2023-02-28T20:36:48;102927.19;;;-0.11;81.37
39823;BME280;25499;53.958;10.970;2023-02-28T20:39:14;102926.78;;;-0.27;81.54
39823;BME280;25499;53.958;10.970;2023-02-28T20:41:40;102929.66;;;-0.34;81.84
39823;BME280;25499;53.958;10.970;2023-02-28T20:44:06;102941.25;;;-0.28;81.83
39823;BME280;25499;53.958;10.970;2023-02-28T20:46:31;102937.69;;;-0.30;81.77
39823;BME280;25499;53.958;10.970;2023-02-28T20:48:58;102935.69;;;-0.22;81.64
39823;BME280;25499;53.958;10.970;2023-02-28T20:51:24;102938.69;;;-0.28;82.23
39823;BME280;25499;53.958;10.970;2023-02-28T20:53:50;102952.84;;;-0.21;82.40
39823;BME280;25499;53.958;10.970;2023-02-28T20:56:18;102960.63;;;0.03;83.09
39823;BME280;25499;53.958;10.970;2023-02-28T20:58:46;102965.84;;;0.04;83.65
39823;BME280;25499;53.958;10.970;2023-02-28T21:01:20;102957.19;;;0.02;83.90
39823;BME280;25499;53.958;10.970;2023-02-28T21:04:04;102963.41;;;0.06;84.11
39823;BME280;25499;53.958;10.970;2023-02-28T21:06:40;102954.22;;;-0.14;84.36
39823;BME280;25499;53.958;10.970;2023-02-28T21:09:08;102945.41;;;-0.18;83.68
39823;BME280;25499;53.958;10.970;2023-02-28T21:11:36;102948.41;;;-0.24;83.98
39823;BME280;25499;53.958;10.970;2023-02-28T21:14:14;102948.28;;;-0.25;83.88
39823;BME280;25499;53.958;10.970;2023-02-28T21:16:40;102944.16;;;-0.23;84.10
39823;BME280;25499;53.958;10.970;2023-02-28T21:19:06;102945.09;;;-0.11;84.27
39823;BME280;25499;53.958;10.970;2023-02-28T21:21:35;102957.81;;;-0.01;83.97
39823;BME280;25499;53.958;10.970;2023-02-28T21:24:02;102934.69;;;-0.24;83.62
39823;BME280;25499;53.958;10.970;2023-02-28T21:26:28;102935.31;;;-0.39;83.48
